createdAt,value
2023-03-26T00:00:13.125Z,7.90
2023-03-26T00:02:40.420Z,8.75
2023-03-26T00:05:08.388Z,8.50
2023-03-26T00:07:35.907Z,11.02
2023-03-26T00:10:07.827Z,6.03
2023-03-26T00:12:35.101Z,6.35
2023-03-26T00:15:03.389Z,6.78
2023-03-26T00:17:31.019Z,8.25
2023-03-26T00:20:00.260Z,6.95
2023-03-26T00:22:27.707Z,5.25
2023-03-26T00:24:57.516Z,8.95
2023-03-26T00:27:25.842Z,7.05
2023-03-26T00:29:56.860Z,9.98
2023-03-26T00:32:28.520Z,6.78
2023-03-26T00:37:27.026Z,6.63
2023-03-26T00:39:54.788Z,11.55
2023-03-26T00:42:28.625Z,5.88
2023-03-26T00:44:58.164Z,5.03
2023-03-26T00:47:28.674Z,8.60
2023-03-26T00:49:56.615Z,7.27
2023-03-26T00:52:24.260Z,8.00
2023-03-26T00:54:52.732Z,6.60
2023-03-26T00:57:34.654Z,7.85
2023-03-26T01:00:16.710Z,6.45
2023-03-26T01:02:45.803Z,5.57
2023-03-26T01:05:43.524Z,6.43
2023-03-26T01:08:21.366Z,6.53
2023-03-26T01:10:51.506Z,7.60
2023-03-26T01:13:23.672Z,6.88
2023-03-26T01:15:51.745Z,6.95
2023-03-26T01:18:21.803Z,4.85
2023-03-26T01:20:50.488Z,5.55
2023-03-26T01:23:24.584Z,14.63
2023-03-26T01:25:58.798Z,29.23
2023-03-26T01:28:27.245Z,5.00
2023-03-26T01:31:13.559Z,9.18
2023-03-26T01:33:55.777Z,10.20
2023-03-26T01:39:00.671Z,22.40
2023-03-26T01:41:38.244Z,13.25
2023-03-26T01:44:14.059Z,6.07
2023-03-26T01:46:42.713Z,8.43
2023-03-26T01:49:13.831Z,8.63
2023-03-26T01:51:42.726Z,9.90
2023-03-26T01:54:12.922Z,7.30
2023-03-26T01:56:51.652Z,8.23
2023-03-26T01:59:36.049Z,9.80
2023-03-26T02:02:06.419Z,7.57
2023-03-26T02:04:37.079Z,13.35
2023-03-26T02:07:07.555Z,8.07
2023-03-26T02:09:39.379Z,7.38
2023-03-26T02:12:07.397Z,8.75
2023-03-26T02:14:34.987Z,6.20
2023-03-26T02:17:02.871Z,7.53
2023-03-26T02:19:30.454Z,11.15
2023-03-26T02:22:00.552Z,7.55
2023-03-26T02:24:28.141Z,7.88
2023-03-26T02:26:56.898Z,9.40
2023-03-26T02:29:24.154Z,7.90
2023-03-26T02:31:51.688Z,8.32
2023-03-26T02:34:18.916Z,8.38
2023-03-26T02:36:46.266Z,5.82
2023-03-26T02:39:14.832Z,8.20
2023-03-26T02:41:42.369Z,7.53
2023-03-26T02:44:10.019Z,7.68
2023-03-26T02:46:37.340Z,6.07
2023-03-26T02:49:05.029Z,6.75
2023-03-26T02:51:35.495Z,6.57
2023-03-26T02:54:03.013Z,14.57
2023-03-26T02:56:30.533Z,5.78
2023-03-26T02:58:57.855Z,6.40
2023-03-26T03:01:25.017Z,5.85
2023-03-26T03:03:52.340Z,6.93
2023-03-26T03:06:19.793Z,7.50
2023-03-26T03:08:47.343Z,6.65
2023-03-26T03:11:25.224Z,5.65
2023-03-26T03:13:53.255Z,5.35
2023-03-26T03:16:21.281Z,4.70
2023-03-26T03:18:55.072Z,4.43
2023-03-26T03:21:23.917Z,5.28
2023-03-26T03:23:51.621Z,4.55
2023-03-26T03:26:22.540Z,5.72
2023-03-26T03:28:50.670Z,8.57
2023-03-26T03:31:18.461Z,6.93
2023-03-26T03:33:47.005Z,4.97
2023-03-26T03:36:20.797Z,8.00
2023-03-26T03:38:49.345Z,4.63
2023-03-26T03:41:18.972Z,5.28
2023-03-26T03:43:46.626Z,6.22
2023-03-26T03:46:16.773Z,4.50
2023-03-26T03:48:48.769Z,5.40
2023-03-26T03:51:16.740Z,5.90
2023-03-26T03:53:44.111Z,9.00
2023-03-26T03:56:11.550Z,6.50
2023-03-26T03:58:39.030Z,7.45
2023-03-26T04:01:06.813Z,6.82
2023-03-26T04:03:40.634Z,6.90
2023-03-26T04:06:08.458Z,6.15
2023-03-26T04:08:36.964Z,6.28
2023-03-26T04:11:04.621Z,7.03
2023-03-26T04:13:31.960Z,5.10
2023-03-26T04:15:59.393Z,6.10
2023-03-26T04:18:28.459Z,9.30
2023-03-26T04:21:03.113Z,6.70
2023-03-26T04:23:30.369Z,5.95
2023-03-26T04:26:01.553Z,6.45
2023-03-26T04:28:31.318Z,4.10
2023-03-26T04:31:04.218Z,7.07
2023-03-26T04:33:33.050Z,8.05
2023-03-26T04:36:03.468Z,9.20
2023-03-26T04:38:34.183Z,6.75
2023-03-26T04:41:03.996Z,6.88
2023-03-26T04:43:32.156Z,6.47
2023-03-26T04:46:03.885Z,4.93
2023-03-26T04:48:31.397Z,4.15
2023-03-26T04:50:58.943Z,4.10
2023-03-26T04:53:26.613Z,5.57
2023-03-26T04:55:57.175Z,7.75
2023-03-26T04:58:30.922Z,4.85
2023-03-26T05:01:10.393Z,7.18
2023-03-26T05:03:41.515Z,7.90
2023-03-26T05:06:15.944Z,5.40
2023-03-26T05:08:43.269Z,6.57
2023-03-26T05:11:13.959Z,5.10
2023-03-26T05:13:43.693Z,3.97
2023-03-26T05:16:11.682Z,6.38
2023-03-26T05:18:39.503Z,6.43
2023-03-26T05:21:07.006Z,4.25
2023-03-26T05:23:34.525Z,8.60
2023-03-26T05:26:04.620Z,5.97
2023-03-26T05:28:32.224Z,5.88
2023-03-26T05:31:00.076Z,4.88
2023-03-26T05:33:27.533Z,4.60
2023-03-26T05:36:10.292Z,5.45
2023-03-26T05:38:37.613Z,5.88
2023-03-26T05:41:06.907Z,5.97
2023-03-26T05:43:34.959Z,7.03
2023-03-26T05:46:02.314Z,7.10
2023-03-26T05:48:32.650Z,8.02
2023-03-26T05:51:00.101Z,7.05
2023-03-26T05:53:27.837Z,5.78
2023-03-26T05:56:01.593Z,6.72
2023-03-26T05:58:31.202Z,7.50
2023-03-26T06:01:01.421Z,4.05
2023-03-26T06:03:29.292Z,4.13
2023-03-26T06:05:56.969Z,4.93
2023-03-26T06:08:24.158Z,10.98
2023-03-26T06:10:51.616Z,5.88
2023-03-26T06:13:19.759Z,4.95
2023-03-26T06:15:47.108Z,4.28
2023-03-26T06:18:14.412Z,7.85
2023-03-26T06:20:42.199Z,3.78
2023-03-26T06:23:09.504Z,6.10
2023-03-26T06:25:37.710Z,5.55
2023-03-26T06:28:04.940Z,5.15
2023-03-26T06:30:32.092Z,5.40
2023-03-26T06:32:59.494Z,8.82
2023-03-26T06:35:30.623Z,7.43
2023-03-26T06:37:58.381Z,4.70
2023-03-26T06:40:26.050Z,4.63
2023-03-26T06:43:07.852Z,9.07
2023-03-26T06:45:38.084Z,5.75
2023-03-26T06:48:05.556Z,4.85
2023-03-26T06:50:33.414Z,6.22
2023-03-26T06:53:00.875Z,5.45
2023-03-26T06:55:28.298Z,4.90
2023-03-26T06:57:57.461Z,5.57
2023-03-26T07:00:24.916Z,5.30
2023-03-26T07:02:52.171Z,5.28
2023-03-26T07:05:22.876Z,7.13
2023-03-26T07:07:50.297Z,4.17
2023-03-26T07:10:18.241Z,6.78
2023-03-26T07:12:45.522Z,5.35
2023-03-26T07:15:12.648Z,5.53
2023-03-26T07:17:40.267Z,7.25
2023-03-26T07:20:11.030Z,5.55
2023-03-26T07:22:38.580Z,4.18
2023-03-26T07:25:07.481Z,5.60
2023-03-26T07:27:37.653Z,5.72
2023-03-26T07:30:07.359Z,5.63
2023-03-26T07:32:35.629Z,5.35
2023-03-26T07:35:08.262Z,7.63
2023-03-26T07:37:36.530Z,4.90
2023-03-26T07:40:19.029Z,6.32
2023-03-26T07:43:04.941Z,3.25
2023-03-26T07:45:41.339Z,2.20
2023-03-26T07:48:15.876Z,3.42
2023-03-26T07:50:43.460Z,7.03
2023-03-26T07:53:12.033Z,2.92
2023-03-26T07:56:02.954Z,5.13
2023-03-26T07:58:48.829Z,7.23
2023-03-26T08:01:24.966Z,1.63
2023-03-26T08:03:58.851Z,6.05
2023-03-26T08:06:57.437Z,3.53
2023-03-26T08:09:24.864Z,4.88
2023-03-26T08:11:58.083Z,5.25
2023-03-26T08:14:28.383Z,3.95
2023-03-26T08:16:59.582Z,3.10
2023-03-26T08:19:47.342Z,2.97
2023-03-26T08:22:18.204Z,3.47
2023-03-26T08:25:03.869Z,3.55
2023-03-26T08:27:38.558Z,4.13
2023-03-26T08:30:16.858Z,3.60
2023-03-26T08:32:50.442Z,4.45
2023-03-26T08:35:18.845Z,3.60
2023-03-26T08:37:50.215Z,3.58
2023-03-26T08:40:20.415Z,3.28
2023-03-26T08:42:59.018Z,3.67
2023-03-26T08:45:38.770Z,2.83
2023-03-26T08:48:24.667Z,2.88
2023-03-26T08:51:28.543Z,2.85
2023-03-26T08:54:18.781Z,5.22
2023-03-26T08:56:54.733Z,4.57
2023-03-26T08:59:41.518Z,2.63
2023-03-26T09:02:09.328Z,3.63
2023-03-26T09:04:55.148Z,5.10
2023-03-26T09:07:30.264Z,3.70
2023-03-26T09:10:21.531Z,4.35
2023-03-26T09:13:08.008Z,4.53
2023-03-26T09:15:53.986Z,4.15
2023-03-26T09:18:30.433Z,3.60
2023-03-26T09:21:07.426Z,4.45
2023-03-26T09:23:50.596Z,2.35
2023-03-26T09:26:30.431Z,3.55
2023-03-26T09:29:16.296Z,3.05
2023-03-26T09:31:54.133Z,2.65
2023-03-26T09:34:41.720Z,4.80
2023-03-26T09:37:14.554Z,4.50
2023-03-26T09:39:58.472Z,4.18
2023-03-26T09:42:41.048Z,6.32
2023-03-26T09:45:09.697Z,4.55
2023-03-26T09:47:49.500Z,4.97
2023-03-26T09:50:34.689Z,4.55
2023-03-26T09:53:20.908Z,4.25
2023-03-26T09:55:54.536Z,4.25
2023-03-26T09:58:22.326Z,2.10
2023-03-26T10:01:10.756Z,2.95
2023-03-26T10:03:47.586Z,3.95
2023-03-26T10:06:27.909Z,3.28
2023-03-26T10:08:55.521Z,5.32
2023-03-26T10:11:41.838Z,2.72
2023-03-26T10:14:09.117Z,2.83
2023-03-26T10:16:39.379Z,2.60
2023-03-26T10:19:09.407Z,2.05
2023-03-26T10:21:43.177Z,2.70
2023-03-26T10:24:16.922Z,1.35
2023-03-26T10:27:09.208Z,2.58
2023-03-26T10:30:00.213Z,3.03
2023-03-26T10:32:46.400Z,2.15
2023-03-26T10:35:26.029Z,2.95
2023-03-26T10:37:59.342Z,2.10
2023-03-26T10:40:46.265Z,2.67
2023-03-26T10:43:22.981Z,4.78
2023-03-26T10:46:05.053Z,2.17
2023-03-26T10:48:51.490Z,3.17
2023-03-26T10:51:21.924Z,3.70
2023-03-26T10:53:55.657Z,2.38
2023-03-26T10:56:46.385Z,2.00
2023-03-26T10:59:19.675Z,2.07
2023-03-26T11:01:56.983Z,1.88
2023-03-26T11:04:24.269Z,2.42
2023-03-26T11:06:55.664Z,3.15
2023-03-26T11:12:26.084Z,3.45
2023-03-26T11:15:14.530Z,3.47
2023-03-26T11:17:42.361Z,2.78
2023-03-26T11:20:30.196Z,4.97
2023-03-26T11:23:03.496Z,2.15
2023-03-26T11:25:39.780Z,3.00
2023-03-26T11:28:26.452Z,2.35
2023-03-26T11:30:56.838Z,4.13
2023-03-26T11:33:27.429Z,3.00
2023-03-26T11:36:03.565Z,3.20
2023-03-26T11:38:38.407Z,2.83
2023-03-26T11:41:12.710Z,3.22
2023-03-26T11:43:39.762Z,6.07
2023-03-26T11:46:10.178Z,6.80
2023-03-26T11:48:43.708Z,6.23
2023-03-26T11:51:31.438Z,3.72
2023-03-26T11:53:59.395Z,3.65
2023-03-26T11:56:40.797Z,2.78
2023-03-26T11:59:56.367Z,2.95
2023-03-26T12:02:26.777Z,4.90
2023-03-26T12:05:15.322Z,3.22
2023-03-26T12:07:47.640Z,5.00
2023-03-26T12:10:35.825Z,2.72
2023-03-26T12:13:06.408Z,2.47
2023-03-26T12:15:33.701Z,1.77
2023-03-26T12:18:18.954Z,6.63
2023-03-26T12:20:46.675Z,2.97
2023-03-26T12:23:34.295Z,2.85
2023-03-26T12:26:22.120Z,1.30
2023-03-26T12:28:51.223Z,1.38
2023-03-26T12:31:19.819Z,2.60
2023-03-26T12:34:08.240Z,1.58
2023-03-26T12:36:36.886Z,3.95
2023-03-26T12:40:07.391Z,2.33
2023-03-26T12:44:50.230Z,2.85
2023-03-26T12:45:16.357Z,1.83
2023-03-26T12:48:00.460Z,5.28
2023-03-26T12:50:37.552Z,2.65
2023-03-26T12:53:16.828Z,3.13
2023-03-26T12:55:58.862Z,3.25
2023-03-26T12:58:51.720Z,2.50
2023-03-26T13:01:37.763Z,3.38
2023-03-26T13:04:24.525Z,2.45
2023-03-26T13:07:01.646Z,2.45
2023-03-26T13:09:33.849Z,3.47
2023-03-26T13:12:16.914Z,4.53
2023-03-26T13:14:57.651Z,2.13
2023-03-26T13:17:25.258Z,1.83
2023-03-26T13:20:02.203Z,3.15
2023-03-26T13:22:32.401Z,3.97
2023-03-26T13:25:22.838Z,3.42
2023-03-26T13:27:53.268Z,2.72
2023-03-26T13:30:23.508Z,1.77
2023-03-26T13:33:07.543Z,1.65
2023-03-26T13:35:40.449Z,1.88
2023-03-26T13:38:10.888Z,2.28
2023-03-26T13:41:01.284Z,3.38
2023-03-26T13:43:31.813Z,2.20
2023-03-26T13:46:03.961Z,3.13
2023-03-26T13:48:37.340Z,1.13
2023-03-26T13:51:07.508Z,4.15
2023-03-26T13:53:42.654Z,2.33
2023-03-26T13:56:16.792Z,2.60
2023-03-26T13:58:44.289Z,1.88
2023-03-26T14:01:36.944Z,1.75
2023-03-26T14:04:22.281Z,2.40
2023-03-26T14:06:54.916Z,2.53
2023-03-26T14:09:32.327Z,2.40
2023-03-26T14:12:22.152Z,1.98
2023-03-26T14:15:03.517Z,3.38
2023-03-26T14:17:40.741Z,4.72
2023-03-26T14:20:23.658Z,4.90
2023-03-26T14:22:57.886Z,4.28
2023-03-26T14:25:26.021Z,6.20
2023-03-26T14:28:00.806Z,2.03
2023-03-26T14:30:31.644Z,3.80
2023-03-26T14:33:03.796Z,4.30
2023-03-26T14:35:49.664Z,2.88
2023-03-26T14:38:23.145Z,4.88
2023-03-26T14:40:56.802Z,3.80
2023-03-26T14:43:54.825Z,2.75
2023-03-26T14:46:22.165Z,4.35
2023-03-26T14:48:58.673Z,2.90
2023-03-26T14:51:29.209Z,2.17
2023-03-26T14:54:02.664Z,5.00
2023-03-26T14:56:49.134Z,4.18
2023-03-26T14:59:18.567Z,2.58
2023-03-26T15:01:52.893Z,2.58
2023-03-26T15:04:39.060Z,3.67
2023-03-26T15:07:16.152Z,2.78
2023-03-26T15:09:46.943Z,2.53
2023-03-26T15:12:34.161Z,2.30
2023-03-26T15:15:14.378Z,5.53
2023-03-26T15:17:42.346Z,4.47
2023-03-26T15:20:32.733Z,2.58
2023-03-26T15:23:12.134Z,2.33
2023-03-26T15:25:52.241Z,2.55
2023-03-26T15:28:38.054Z,2.95
2023-03-26T15:31:32.731Z,2.65
2023-03-26T15:34:13.789Z,3.30
2023-03-26T15:37:07.719Z,4.38
2023-03-26T15:39:40.718Z,5.15
2023-03-26T15:42:30.026Z,5.15
2023-03-26T15:45:18.657Z,4.53
2023-03-26T15:48:05.154Z,5.20
2023-03-26T15:50:32.554Z,9.90
2023-03-26T15:53:00.730Z,7.70
2023-03-26T15:55:38.977Z,8.85
2023-03-26T15:58:07.190Z,10.30
2023-03-26T16:00:39.621Z,88.20
2023-03-26T16:03:16.350Z,60.38
2023-03-26T16:06:07.919Z,53.53
2023-03-26T16:08:53.718Z,78.15
2023-03-26T16:11:40.046Z,19.52
2023-03-26T16:14:24.024Z,22.23
2023-03-26T16:16:57.056Z,12.80
2023-03-26T16:19:36.557Z,11.27
2023-03-26T16:22:03.804Z,6.13
2023-03-26T16:24:33.593Z,7.53
2023-03-26T16:27:04.279Z,6.65
2023-03-26T16:29:32.023Z,6.07
2023-03-26T16:32:01.232Z,6.63
2023-03-26T16:34:47.581Z,7.63
2023-03-26T16:37:38.064Z,9.73
2023-03-26T16:40:17.395Z,7.85
2023-03-26T16:43:03.312Z,7.20
2023-03-26T16:45:43.065Z,10.45
2023-03-26T16:48:28.842Z,16.75
2023-03-26T16:51:10.067Z,15.90
2023-03-26T16:53:47.280Z,15.90
2023-03-26T16:56:57.969Z,15.82
2023-03-26T16:59:37.226Z,17.70
2023-03-26T17:02:09.168Z,14.13
2023-03-26T17:04:37.690Z,9.20
2023-03-26T17:07:15.011Z,6.63
2023-03-26T17:10:06.303Z,3.85
2023-03-26T17:12:33.587Z,4.22
2023-03-26T17:15:19.994Z,3.90
2023-03-26T17:17:54.274Z,3.05
2023-03-26T17:20:37.761Z,3.90
2023-03-26T17:23:07.701Z,3.08
2023-03-26T17:25:41.475Z,2.70
2023-03-26T17:28:19.583Z,1.73
2023-03-26T17:31:04.455Z,2.35
2023-03-26T17:33:37.903Z,3.50
2023-03-26T17:36:22.053Z,2.47
2023-03-26T17:39:00.660Z,63.15
2023-03-26T17:41:46.362Z,88.55
2023-03-26T17:44:32.998Z,47.45
2023-03-26T17:47:04.029Z,15.75
2023-03-26T17:49:34.450Z,26.88
2023-03-26T17:52:04.793Z,53.17
2023-03-26T17:54:34.909Z,28.90
2023-03-26T17:57:23.110Z,16.27
2023-03-26T17:59:51.958Z,13.07
2023-03-26T18:02:24.634Z,15.38
2023-03-26T18:04:54.974Z,31.95
2023-03-26T18:07:42.790Z,25.90
2023-03-26T18:10:10.463Z,31.48
2023-03-26T18:12:42.662Z,32.42
2023-03-26T18:15:16.301Z,31.75
2023-03-26T18:17:45.381Z,36.08
2023-03-26T18:20:30.977Z,46.75
2023-03-26T18:22:58.620Z,52.28
2023-03-26T18:25:27.717Z,62.17
2023-03-26T18:27:56.985Z,31.30
2023-03-26T18:30:26.366Z,28.23
2023-03-26T18:33:06.107Z,24.80
2023-03-26T18:35:47.089Z,19.67
2023-03-26T18:38:17.566Z,20.48
2023-03-26T18:40:46.557Z,23.10
2023-03-26T18:43:32.600Z,22.33
2023-03-26T18:46:04.588Z,18.40
2023-03-26T18:48:32.313Z,15.57
2023-03-26T18:51:07.499Z,23.13
2023-03-26T18:54:01.934Z,13.77
2023-03-26T18:56:31.392Z,14.23
2023-03-26T18:59:02.343Z,16.13
2023-03-26T19:01:34.127Z,16.60
2023-03-26T19:04:04.490Z,15.10
2023-03-26T19:06:39.160Z,16.98
2023-03-26T19:09:16.318Z,10.98
2023-03-26T19:11:45.899Z,10.63
2023-03-26T19:14:21.084Z,11.70
2023-03-26T19:16:56.980Z,14.38
2023-03-26T19:19:26.945Z,12.00
2023-03-26T19:21:59.081Z,18.30
2023-03-26T19:24:27.933Z,20.05
2023-03-26T19:26:56.427Z,27.42
2023-03-26T19:29:32.974Z,36.13
2023-03-26T19:32:08.452Z,15.90
2023-03-26T19:34:39.303Z,12.70
2023-03-26T19:37:27.523Z,9.45
2023-03-26T19:40:15.732Z,14.48
2023-03-26T19:42:45.045Z,21.80
2023-03-26T19:45:20.313Z,32.15
2023-03-26T19:47:57.347Z,27.67
2023-03-26T19:50:34.506Z,15.20
2023-03-26T19:53:15.368Z,16.77
2023-03-26T19:55:53.194Z,12.35
2023-03-26T19:58:20.696Z,31.13
2023-03-26T20:00:49.522Z,15.85
2023-03-26T20:03:17.572Z,12.73
2023-03-26T20:05:44.970Z,18.52
2023-03-26T20:08:18.035Z,14.20
2023-03-26T20:10:48.861Z,18.55
2023-03-26T20:13:17.069Z,44.83
2023-03-26T20:15:48.687Z,65.75
2023-03-26T20:18:34.920Z,34.85
2023-03-26T20:21:02.865Z,27.13
2023-03-26T20:23:30.546Z,26.17
2023-03-26T20:25:58.360Z,22.73
2023-03-26T20:28:25.755Z,14.73
2023-03-26T20:30:54.933Z,17.55
2023-03-26T20:33:26.041Z,53.00
2023-03-26T20:36:00.312Z,37.97
2023-03-26T20:38:38.967Z,38.50
2023-03-26T20:41:10.882Z,37.35
2023-03-26T20:43:40.052Z,38.47
2023-03-26T20:46:08.356Z,40.47
2023-03-26T20:48:37.055Z,40.97
2023-03-26T20:51:05.308Z,34.17
2023-03-26T20:53:33.369Z,23.15
2023-03-26T20:56:01.119Z,18.98
2023-03-26T20:58:31.417Z,17.85
2023-03-26T21:01:02.856Z,20.08
2023-03-26T21:03:30.697Z,22.13
2023-03-26T21:06:02.941Z,17.42
2023-03-26T21:08:38.603Z,22.77
2023-03-26T21:11:11.376Z,21.27
2023-03-26T21:13:52.866Z,18.85
2023-03-26T21:16:20.968Z,19.58
2023-03-26T21:18:49.679Z,21.98
2023-03-26T21:21:30.951Z,17.90
2023-03-26T21:24:01.088Z,17.77
2023-03-26T21:26:41.356Z,13.00
2023-03-26T21:29:09.811Z,12.68
2023-03-26T21:31:38.532Z,21.65
2023-03-26T21:34:05.908Z,33.78
2023-03-26T21:36:34.537Z,38.25
2023-03-26T21:39:02.680Z,41.85
2023-03-26T21:41:46.173Z,41.80
2023-03-26T21:44:14.946Z,35.10
2023-03-26T21:46:43.865Z,28.55
2023-03-26T21:49:12.314Z,29.55
2023-03-26T21:51:39.850Z,23.83
2023-03-26T21:54:30.570Z,23.20
2023-03-26T21:57:16.296Z,23.27
2023-03-26T21:59:56.780Z,28.88
2023-03-26T22:02:29.355Z,26.88
2023-03-26T22:05:12.595Z,18.00
2023-03-26T22:07:52.776Z,16.83
2023-03-26T22:10:20.250Z,18.73
2023-03-26T22:12:48.399Z,23.13
2023-03-26T22:15:15.983Z,44.20
2023-03-26T22:17:43.619Z,195.82
2023-03-26T22:20:14.404Z,39.60
2023-03-26T22:22:46.815Z,16.33
2023-03-26T22:25:14.936Z,47.53
2023-03-26T22:27:44.022Z,19.38
2023-03-26T22:30:13.159Z,21.50
2023-03-26T22:32:43.700Z,18.10
2023-03-26T22:35:12.204Z,22.10
2023-03-26T22:37:41.765Z,18.52
2023-03-26T22:40:09.422Z,16.45
2023-03-26T22:42:38.693Z,21.25
2023-03-26T22:45:07.438Z,22.60
2023-03-26T22:47:42.402Z,24.83
2023-03-26T22:50:10.784Z,26.60
2023-03-26T22:52:37.819Z,23.10
2023-03-26T22:55:06.640Z,37.70
2023-03-26T22:57:34.691Z,48.53
2023-03-26T23:00:15.851Z,47.05
2023-03-26T23:02:48.373Z,41.63
2023-03-26T23:05:20.589Z,41.13
2023-03-26T23:07:55.142Z,28.40
2023-03-26T23:10:22.852Z,24.85
2023-03-26T23:12:50.367Z,19.75
2023-03-26T23:15:17.635Z,24.27
2023-03-26T23:17:45.077Z,24.90
2023-03-26T23:20:21.823Z,20.73
2023-03-26T23:22:49.206Z,21.67
2023-03-26T23:25:16.559Z,20.25
2023-03-26T23:27:44.543Z,18.85
2023-03-26T23:30:12.255Z,20.52
2023-03-26T23:32:39.762Z,23.77
2023-03-26T23:35:07.328Z,18.83
2023-03-26T23:37:35.834Z,16.05
2023-03-26T23:40:08.145Z,21.45
2023-03-26T23:42:35.745Z,27.10
2023-03-26T23:45:03.028Z,20.95
2023-03-26T23:47:35.060Z,17.73
2023-03-26T23:50:05.248Z,19.92
2023-03-26T23:52:32.611Z,18.63
2023-03-26T23:55:03.377Z,20.35
2023-03-26T23:57:31.224Z,19.98
2023-03-26T23:59:58.995Z,23.73
